createdAt,value
2023-01-17T00:01:54.014Z,9.50
2023-01-17T00:05:02.096Z,8.20
2023-01-17T00:08:10.063Z,9.50
2023-01-17T00:11:00.194Z,7.40
2023-01-17T00:13:50.495Z,9.10
2023-01-17T00:16:41.031Z,8.60
2023-01-17T00:19:48.733Z,8.20
2023-01-17T00:22:56.708Z,8.20
2023-01-17T00:26:06.397Z,8.80
2023-01-17T00:28:55.864Z,9.30
2023-01-17T00:31:44.973Z,9.40
2023-01-17T00:34:33.675Z,9.70
2023-01-17T00:37:22.641Z,9.40
2023-01-17T00:40:13.032Z,9.60
2023-01-17T00:43:20.927Z,11.10
2023-01-17T00:46:28.971Z,12.10
2023-01-17T00:49:36.898Z,12.50
2023-01-17T00:52:44.671Z,11.00
2023-01-17T00:55:54.092Z,11.30
2023-01-17T00:59:02.041Z,9.00
2023-01-17T01:02:11.265Z,11.50
2023-01-17T01:05:18.631Z,9.60
2023-01-17T01:08:37.252Z,9.50
2023-01-17T01:11:44.909Z,8.20
2023-01-17T01:14:52.902Z,9.90
2023-01-17T01:18:01.109Z,8.70
2023-01-17T01:21:08.691Z,9.60
2023-01-17T01:24:16.225Z,9.60
2023-01-17T01:27:24.408Z,9.80
2023-01-17T01:30:33.437Z,9.00
2023-01-17T01:33:22.087Z,8.30
2023-01-17T01:36:12.935Z,8.10
2023-01-17T01:39:03.005Z,7.90
2023-01-17T01:41:54.079Z,8.30
2023-01-17T01:44:50.493Z,9.60
2023-01-17T01:47:42.643Z,9.00
2023-01-17T01:50:35.428Z,7.80
2023-01-17T01:53:26.104Z,9.60
2023-01-17T01:56:17.571Z,9.20
2023-01-17T01:59:11.777Z,8.80
2023-01-17T02:02:02.463Z,7.40
2023-01-17T02:04:54.244Z,8.00
2023-01-17T02:07:50.698Z,7.70
2023-01-17T02:10:44.006Z,8.20
2023-01-17T02:13:34.377Z,8.30
2023-01-17T02:16:37.782Z,8.50
2023-01-17T02:19:53.962Z,10.80
2023-01-17T02:23:06.254Z,8.20
2023-01-17T02:26:39.744Z,8.70
2023-01-17T02:30:03.212Z,6.90
2023-01-17T02:33:24.354Z,9.30
2023-01-17T02:36:20.528Z,7.00
2023-01-17T02:39:17.425Z,9.20
2023-01-17T02:42:11.218Z,7.60
2023-01-17T02:45:01.246Z,7.90
2023-01-17T02:47:50.688Z,7.50
2023-01-17T02:51:00.283Z,6.70
2023-01-17T02:54:04.200Z,7.80
2023-01-17T02:57:03.705Z,7.40
2023-01-17T03:00:01.676Z,8.80
2023-01-17T03:02:58.721Z,7.20
2023-01-17T03:05:55.568Z,6.60
2023-01-17T03:08:48.603Z,8.20
2023-01-17T03:11:39.402Z,6.90
2023-01-17T03:14:31.320Z,8.10
2023-01-17T03:17:21.876Z,8.90
2023-01-17T03:20:13.665Z,7.30
2023-01-17T03:23:03.732Z,10.40
2023-01-17T03:25:53.867Z,9.40
2023-01-17T03:28:44.563Z,7.60
2023-01-17T03:31:34.965Z,8.50
2023-01-17T03:34:26.139Z,7.80
2023-01-17T03:37:16.365Z,7.30
2023-01-17T03:40:07.704Z,6.40
2023-01-17T03:42:57.782Z,10.00
2023-01-17T03:45:49.716Z,8.20
2023-01-17T03:48:42.053Z,7.70
2023-01-17T03:51:31.981Z,8.20
2023-01-17T03:54:22.512Z,7.70
2023-01-17T03:57:12.718Z,6.80
2023-01-17T04:00:02.926Z,8.00
2023-01-17T04:02:57.483Z,7.60
2023-01-17T04:05:47.759Z,7.00
2023-01-17T04:08:38.093Z,7.60
2023-01-17T04:11:28.157Z,7.40
2023-01-17T04:14:18.143Z,7.10
2023-01-17T04:17:08.239Z,6.80
2023-01-17T04:19:59.026Z,6.60
2023-01-17T04:22:49.930Z,7.90
2023-01-17T04:25:40.541Z,8.70
2023-01-17T04:28:31.947Z,6.80
2023-01-17T04:31:21.880Z,8.30
2023-01-17T04:34:12.270Z,7.30
2023-01-17T04:37:02.440Z,6.00
2023-01-17T04:39:52.412Z,7.30
2023-01-17T04:42:47.291Z,8.00
2023-01-17T04:45:38.877Z,6.30
2023-01-17T04:48:28.972Z,6.80
2023-01-17T04:51:19.221Z,7.80
2023-01-17T04:54:09.301Z,6.90
2023-01-17T04:56:59.736Z,7.40
2023-01-17T04:59:50.174Z,7.20
2023-01-17T05:02:40.479Z,7.70
2023-01-17T05:05:31.388Z,6.90
2023-01-17T05:08:21.180Z,10.40
2023-01-17T05:11:11.263Z,7.00
2023-01-17T05:14:01.742Z,7.20
2023-01-17T05:16:53.714Z,7.60
2023-01-17T05:19:43.832Z,6.30
2023-01-17T05:22:33.774Z,6.80
2023-01-17T05:25:23.974Z,7.60
2023-01-17T05:28:14.847Z,7.10
2023-01-17T05:31:05.343Z,6.80
2023-01-17T05:33:55.486Z,7.10
2023-01-17T05:36:46.031Z,8.30
2023-01-17T05:39:36.223Z,6.40
2023-01-17T05:42:26.376Z,7.40
2023-01-17T05:45:17.992Z,7.20
2023-01-17T05:48:08.623Z,6.60
2023-01-17T05:50:58.926Z,8.50
2023-01-17T05:53:49.313Z,5.70
2023-01-17T05:56:39.673Z,8.40
2023-01-17T05:59:36.903Z,7.10
2023-01-17T06:02:27.808Z,6.20
2023-01-17T06:05:18.425Z,6.40
2023-01-17T06:08:09.343Z,6.00
2023-01-17T06:11:01.633Z,8.40
2023-01-17T06:13:52.323Z,9.10
2023-01-17T06:16:42.528Z,9.20
2023-01-17T06:19:32.673Z,8.60
2023-01-17T06:22:22.596Z,8.10
2023-01-17T06:25:12.702Z,7.90
2023-01-17T06:28:04.382Z,9.10
2023-01-17T06:30:54.693Z,7.90
2023-01-17T06:33:44.656Z,7.20
2023-01-17T06:36:35.787Z,7.50
2023-01-17T06:39:25.624Z,8.00
2023-01-17T06:42:15.925Z,7.50
2023-01-17T06:45:06.370Z,6.70
2023-01-17T06:47:58.727Z,7.70
2023-01-17T06:50:50.005Z,6.50
2023-01-17T06:53:40.475Z,8.30
2023-01-17T06:56:33.613Z,6.60
2023-01-17T06:59:24.118Z,6.80
2023-01-17T07:02:15.271Z,6.50
2023-01-17T07:05:06.146Z,5.00
2023-01-17T07:07:56.455Z,4.20
2023-01-17T07:10:46.792Z,4.90
2023-01-17T07:13:38.967Z,4.50
2023-01-17T07:16:29.013Z,5.50
2023-01-17T07:19:19.380Z,6.10
2023-01-17T07:22:11.394Z,6.60
2023-01-17T07:25:01.999Z,7.40
2023-01-17T07:27:57.675Z,7.60
2023-01-17T07:30:47.927Z,7.30
2023-01-17T07:33:38.640Z,9.60
2023-01-17T07:36:29.285Z,9.20
2023-01-17T07:39:19.543Z,11.40
2023-01-17T07:42:09.482Z,11.80
2023-01-17T07:45:00.764Z,10.10
2023-01-17T07:47:51.172Z,10.90
2023-01-17T07:50:41.798Z,11.70
2023-01-17T07:53:33.741Z,13.30
2023-01-17T07:56:24.212Z,13.90
2023-01-17T07:59:14.786Z,12.80
2023-01-17T08:02:04.203Z,13.20
2023-01-17T08:04:54.216Z,13.20
2023-01-17T08:07:44.836Z,13.30
2023-01-17T08:10:35.588Z,16.90
2023-01-17T08:13:25.903Z,13.30
2023-01-17T08:16:16.389Z,14.30
2023-01-17T08:19:06.672Z,15.10
2023-01-17T08:21:56.965Z,14.90
2023-01-17T08:24:47.755Z,15.20
2023-01-17T08:27:37.851Z,13.00
2023-01-17T08:30:28.337Z,14.00
2023-01-17T08:33:18.725Z,13.00
2023-01-17T08:36:09.107Z,14.00
2023-01-17T08:38:59.916Z,13.10
2023-01-17T08:41:50.360Z,13.70
2023-01-17T08:44:40.636Z,13.00
2023-01-17T08:47:31.017Z,11.50
2023-01-17T08:50:21.867Z,11.50
2023-01-17T08:53:12.002Z,12.30
2023-01-17T08:56:03.217Z,10.10
2023-01-17T08:58:53.389Z,11.20
2023-01-17T09:01:46.031Z,11.60
2023-01-17T09:04:36.541Z,12.80
2023-01-17T09:07:27.173Z,11.50
2023-01-17T09:10:17.952Z,11.60
2023-01-17T09:13:09.955Z,12.30
2023-01-17T09:16:00.828Z,11.40
2023-01-17T09:18:50.877Z,10.50
2023-01-17T09:21:41.119Z,10.80
2023-01-17T09:24:31.228Z,12.00
2023-01-17T09:27:20.977Z,11.50
2023-01-17T09:30:13.627Z,10.10
2023-01-17T09:33:03.562Z,11.10
2023-01-17T09:35:53.316Z,10.20
2023-01-17T09:38:43.969Z,9.50
2023-01-17T09:41:36.079Z,10.00
2023-01-17T09:44:34.440Z,9.40
2023-01-17T09:47:33.587Z,10.80
2023-01-17T09:50:31.058Z,8.50
2023-01-17T09:53:22.526Z,11.20
2023-01-17T09:56:17.397Z,10.00
2023-01-17T09:59:32.742Z,8.70
2023-01-17T10:02:38.580Z,9.70
2023-01-17T10:05:57.122Z,8.80
2023-01-17T10:09:05.109Z,9.00
2023-01-17T10:12:19.894Z,11.30
2023-01-17T10:15:26.723Z,10.70
2023-01-17T10:18:52.869Z,10.20
2023-01-17T10:21:59.405Z,8.40
2023-01-17T10:25:14.460Z,10.10
2023-01-17T10:28:14.010Z,10.30
2023-01-17T10:31:07.546Z,11.00
2023-01-17T10:33:59.369Z,8.90
2023-01-17T10:36:54.096Z,10.70
2023-01-17T10:39:46.272Z,7.60
2023-01-17T10:42:48.445Z,9.80
2023-01-17T10:45:45.146Z,8.60
2023-01-17T10:48:42.801Z,7.80
2023-01-17T10:52:00.437Z,8.10
2023-01-17T10:55:12.205Z,8.10
2023-01-17T10:58:02.554Z,9.70
2023-01-17T11:00:58.720Z,7.90
2023-01-17T11:03:53.933Z,7.50
2023-01-17T11:06:57.934Z,8.10
2023-01-17T11:09:51.327Z,11.00
2023-01-17T11:12:46.310Z,8.00
2023-01-17T11:15:41.946Z,6.50
2023-01-17T11:18:33.994Z,6.60
2023-01-17T11:21:25.679Z,6.90
2023-01-17T11:24:27.419Z,6.80
2023-01-17T11:27:29.209Z,8.40
2023-01-17T11:30:22.088Z,7.40
2023-01-17T11:33:45.199Z,8.70
2023-01-17T11:36:36.076Z,6.90
2023-01-17T11:39:28.602Z,7.40
2023-01-17T11:42:37.721Z,8.00
2023-01-17T11:45:30.189Z,6.90
2023-01-17T11:48:22.111Z,6.90
2023-01-17T11:51:23.931Z,6.80
2023-01-17T11:54:24.856Z,6.30
2023-01-17T11:57:25.625Z,7.60
2023-01-17T12:00:26.169Z,6.90
2023-01-17T12:03:25.888Z,7.50
2023-01-17T12:06:21.905Z,5.60
2023-01-17T12:09:24.207Z,6.30
2023-01-17T12:12:41.895Z,5.60
2023-01-17T12:15:48.373Z,7.00
2023-01-17T12:18:45.566Z,6.00
2023-01-17T12:21:43.698Z,7.20
2023-01-17T12:24:49.250Z,5.60
2023-01-17T12:27:50.104Z,5.10
2023-01-17T12:30:54.974Z,6.00
2023-01-17T12:33:52.721Z,5.30
2023-01-17T12:36:49.734Z,6.20
2023-01-17T12:39:44.845Z,5.70
2023-01-17T12:42:40.732Z,5.90
2023-01-17T12:45:34.779Z,4.60
2023-01-17T12:48:30.833Z,7.50
2023-01-17T12:51:27.910Z,6.10
2023-01-17T12:54:25.489Z,6.60
2023-01-17T12:57:21.329Z,4.80
2023-01-17T13:00:19.737Z,5.80
2023-01-17T13:03:17.653Z,6.70
2023-01-17T13:06:13.897Z,6.50
2023-01-17T13:09:06.279Z,6.80
2023-01-17T13:11:59.130Z,6.40
2023-01-17T13:14:50.956Z,5.60
2023-01-17T13:17:47.763Z,7.30
2023-01-17T13:20:53.582Z,7.10
2023-01-17T13:23:56.064Z,5.30
2023-01-17T13:27:00.843Z,6.40
2023-01-17T13:30:04.821Z,5.80
2023-01-17T13:33:19.931Z,5.20
2023-01-17T13:36:25.583Z,5.00
2023-01-17T13:39:43.193Z,4.70
2023-01-17T13:42:43.672Z,7.00
2023-01-17T13:45:35.750Z,7.20
2023-01-17T13:48:34.388Z,5.50
2023-01-17T13:52:03.686Z,5.90
2023-01-17T13:54:58.502Z,6.70
2023-01-17T13:57:48.268Z,7.90
2023-01-17T14:01:01.136Z,6.80
2023-01-17T14:04:09.097Z,7.90
2023-01-17T14:07:03.968Z,7.50
2023-01-17T14:09:54.866Z,10.80
2023-01-17T14:12:44.911Z,7.70
2023-01-17T14:15:48.543Z,6.90
2023-01-17T14:18:42.702Z,7.70
2023-01-17T14:21:33.493Z,7.80
2023-01-17T14:24:24.320Z,7.30
2023-01-17T14:27:24.712Z,7.30
2023-01-17T14:30:22.562Z,6.70
2023-01-17T14:33:19.185Z,6.90
2023-01-17T14:36:19.910Z,7.70
2023-01-17T14:39:23.874Z,8.60
2023-01-17T14:42:17.847Z,7.40
2023-01-17T14:45:11.164Z,7.60
2023-01-17T14:48:02.934Z,7.90
2023-01-17T14:50:54.312Z,8.20
2023-01-17T14:53:55.963Z,9.80
2023-01-17T14:56:48.302Z,8.00
2023-01-17T14:59:38.696Z,7.90
2023-01-17T15:02:28.973Z,9.20
2023-01-17T15:05:21.815Z,8.00
2023-01-17T15:08:16.035Z,7.20
2023-01-17T15:11:08.870Z,8.50
2023-01-17T15:14:02.515Z,9.30
2023-01-17T15:16:52.798Z,8.00
2023-01-17T15:19:48.350Z,7.00
2023-01-17T15:22:40.114Z,8.30
2023-01-17T15:25:30.839Z,9.00
2023-01-17T15:28:21.509Z,11.20
2023-01-17T15:31:16.096Z,11.10
2023-01-17T15:34:09.502Z,11.10
2023-01-17T15:37:03.082Z,12.70
2023-01-17T15:40:02.692Z,12.20
2023-01-17T15:42:56.759Z,9.70
2023-01-17T15:45:57.011Z,9.70
2023-01-17T15:48:47.526Z,10.80
2023-01-17T15:51:41.803Z,11.70
2023-01-17T15:54:47.997Z,11.80
2023-01-17T15:57:39.502Z,9.60
2023-01-17T16:00:37.869Z,10.60
2023-01-17T16:03:31.768Z,8.80
2023-01-17T16:06:42.515Z,8.70
2023-01-17T16:09:46.137Z,11.60
2023-01-17T16:12:36.635Z,9.50
2023-01-17T16:15:28.293Z,10.00
2023-01-17T16:18:22.177Z,9.70
2023-01-17T16:21:21.443Z,11.00
2023-01-17T16:24:14.421Z,9.80
2023-01-17T16:27:07.735Z,10.00
2023-01-17T16:29:59.471Z,10.50
2023-01-17T16:32:51.666Z,10.70
2023-01-17T16:35:43.147Z,10.70
2023-01-17T16:38:33.912Z,10.80
2023-01-17T16:41:25.623Z,11.50
2023-01-17T16:44:17.106Z,10.80
2023-01-17T16:47:08.619Z,11.50
2023-01-17T16:49:59.409Z,9.40
2023-01-17T16:52:50.814Z,11.10
2023-01-17T16:55:44.218Z,9.40
2023-01-17T16:58:34.898Z,9.30
2023-01-17T17:01:26.031Z,9.50
2023-01-17T17:04:17.180Z,10.30
2023-01-17T17:07:07.776Z,9.10
2023-01-17T17:09:58.798Z,9.60
2023-01-17T17:12:50.382Z,10.40
2023-01-17T17:15:45.797Z,10.30
2023-01-17T17:18:37.277Z,9.30
2023-01-17T17:21:28.082Z,10.60
2023-01-17T17:24:19.901Z,10.80
2023-01-17T17:27:10.313Z,11.10
2023-01-17T17:30:01.083Z,11.40
2023-01-17T17:32:52.238Z,9.30
2023-01-17T17:35:43.594Z,10.20
2023-01-17T17:38:36.307Z,10.90
2023-01-17T17:41:29.803Z,10.50
2023-01-17T17:44:20.515Z,10.10
2023-01-17T17:47:13.130Z,11.00
2023-01-17T17:50:04.404Z,9.80
2023-01-17T17:52:54.672Z,11.10
2023-01-17T17:55:44.744Z,10.50
2023-01-17T17:58:36.960Z,10.50
2023-01-17T18:01:27.493Z,10.00
2023-01-17T18:04:18.474Z,13.30
2023-01-17T18:07:08.567Z,12.00
2023-01-17T18:09:58.804Z,14.20
2023-01-17T18:12:49.439Z,14.20
2023-01-17T18:15:39.890Z,13.40
2023-01-17T18:18:31.405Z,15.40
2023-01-17T18:21:23.786Z,14.10
2023-01-17T18:24:16.652Z,14.50
2023-01-17T18:27:06.970Z,15.70
2023-01-17T18:29:56.717Z,13.30
2023-01-17T18:32:49.957Z,13.30
2023-01-17T18:35:39.668Z,12.90
2023-01-17T18:38:38.072Z,12.40
2023-01-17T18:41:29.324Z,10.30
2023-01-17T18:44:22.219Z,9.80
2023-01-17T18:47:13.156Z,10.20
2023-01-17T18:50:02.856Z,9.90
2023-01-17T18:52:53.461Z,10.30
2023-01-17T18:55:43.580Z,10.20
2023-01-17T18:58:36.209Z,10.80
2023-01-17T19:01:28.896Z,10.00
2023-01-17T19:04:20.187Z,10.80
2023-01-17T19:07:12.545Z,10.60
2023-01-17T19:10:03.034Z,10.40
2023-01-17T19:12:53.231Z,10.00
2023-01-17T19:15:43.583Z,10.00
2023-01-17T19:18:33.664Z,9.90
2023-01-17T19:21:25.488Z,11.50
2023-01-17T19:24:15.832Z,12.60
2023-01-17T19:27:07.324Z,11.00
2023-01-17T19:29:57.815Z,10.90
2023-01-17T19:32:50.105Z,11.30
2023-01-17T19:35:40.258Z,10.70
2023-01-17T19:38:30.189Z,10.70
2023-01-17T19:41:23.847Z,12.30
2023-01-17T19:44:15.562Z,11.10
2023-01-17T19:47:05.450Z,12.20
2023-01-17T19:49:55.475Z,13.10
2023-01-17T19:52:45.228Z,10.70
2023-01-17T19:55:40.252Z,9.70
2023-01-17T19:58:30.006Z,10.90
2023-01-17T20:01:24.059Z,10.90
2023-01-17T20:04:14.303Z,10.40
2023-01-17T20:07:04.468Z,9.80
2023-01-17T20:09:54.921Z,10.80
2023-01-17T20:12:45.685Z,10.00
2023-01-17T20:15:37.137Z,10.50
2023-01-17T20:18:27.865Z,10.30
2023-01-17T20:21:20.917Z,10.30
2023-01-17T20:24:13.816Z,9.10
2023-01-17T20:27:04.725Z,9.20
2023-01-17T20:29:55.443Z,10.90
2023-01-17T20:32:46.126Z,10.20
2023-01-17T20:35:36.935Z,9.30
2023-01-17T20:38:30.095Z,9.80
2023-01-17T20:41:22.188Z,10.50
2023-01-17T20:44:14.065Z,10.10
2023-01-17T20:47:04.339Z,9.70
2023-01-17T20:49:54.969Z,9.20
2023-01-17T20:52:44.853Z,8.50
2023-01-17T20:55:34.798Z,10.20
2023-01-17T20:58:24.869Z,9.30
2023-01-17T21:01:21.334Z,10.30
2023-01-17T21:04:11.830Z,10.20
2023-01-17T21:07:01.823Z,10.10
2023-01-17T21:09:51.799Z,9.50
2023-01-17T21:12:41.986Z,10.00
2023-01-17T21:15:32.185Z,10.50
2023-01-17T21:18:24.632Z,10.50
2023-01-17T21:21:18.037Z,9.90
2023-01-17T21:24:09.417Z,10.90
2023-01-17T21:27:00.829Z,10.30
2023-01-17T21:29:53.109Z,9.50
2023-01-17T21:32:43.522Z,11.50
2023-01-17T21:35:34.227Z,11.80
2023-01-17T21:38:25.309Z,11.80
2023-01-17T21:41:15.758Z,11.50
2023-01-17T21:44:10.588Z,12.20
2023-01-17T21:47:00.842Z,12.40
2023-01-17T21:49:51.501Z,11.20
2023-01-17T21:52:42.538Z,9.60
2023-01-17T21:55:50.692Z,9.00
2023-01-17T21:58:48.477Z,8.40
2023-01-17T22:01:39.292Z,9.20
2023-01-17T22:04:30.142Z,9.70
2023-01-17T22:07:20.573Z,7.90
2023-01-17T22:10:12.780Z,10.40
2023-01-17T22:13:03.616Z,9.10
2023-01-17T22:16:04.494Z,9.10
2023-01-17T22:18:55.117Z,10.00
2023-01-17T22:21:45.430Z,10.00
2023-01-17T22:24:36.014Z,9.80
2023-01-17T22:27:26.822Z,9.20
2023-01-17T22:30:19.553Z,9.30
2023-01-17T22:33:10.545Z,8.90
2023-01-17T22:36:02.480Z,9.30
2023-01-17T22:38:54.648Z,9.10
2023-01-17T22:41:45.587Z,9.50
2023-01-17T22:44:36.072Z,9.90
2023-01-17T22:47:26.877Z,9.90
2023-01-17T22:50:17.706Z,10.00
2023-01-17T22:53:08.765Z,9.00
2023-01-17T22:56:08.227Z,9.00
2023-01-17T22:59:00.896Z,8.10
2023-01-17T23:01:52.029Z,9.00
2023-01-17T23:04:42.480Z,8.60
2023-01-17T23:07:43.165Z,11.80
2023-01-17T23:10:51.077Z,10.30
2023-01-17T23:13:42.371Z,8.60
2023-01-17T23:16:50.382Z,9.00
2023-01-17T23:19:43.661Z,8.90
2023-01-17T23:22:34.535Z,9.80
2023-01-17T23:25:25.112Z,10.30
2023-01-17T23:28:21.092Z,8.50
2023-01-17T23:31:12.647Z,10.10
2023-01-17T23:34:03.541Z,9.00
2023-01-17T23:36:54.224Z,8.60
2023-01-17T23:39:44.655Z,10.60
2023-01-17T23:42:53.429Z,9.20
2023-01-17T23:45:44.221Z,8.80
2023-01-17T23:48:34.783Z,10.00
2023-01-17T23:51:25.909Z,8.70
2023-01-17T23:54:16.340Z,9.50
2023-01-17T23:57:06.949Z,9.50
2023-01-17T23:59:57.291Z,8.00
